createdAt,value
2022-10-24T00:00:09.601Z,5.53
2022-10-24T00:01:10.984Z,5.55
2022-10-24T00:02:12.754Z,5.00
2022-10-24T00:03:13.898Z,5.07
2022-10-24T00:04:15.026Z,5.80
2022-10-24T00:05:15.942Z,6.00
2022-10-24T00:06:17.525Z,5.50
2022-10-24T00:07:18.425Z,4.97
2022-10-24T00:08:19.673Z,5.73
2022-10-24T00:09:20.533Z,5.10
2022-10-24T00:10:21.857Z,5.50
2022-10-24T00:11:23.930Z,5.43
2022-10-24T00:12:25.084Z,4.85
2022-10-24T00:13:25.957Z,5.03
2022-10-24T00:14:27.292Z,4.93
2022-10-24T00:15:28.309Z,5.07
2022-10-24T00:16:29.506Z,5.53
2022-10-24T00:17:31.087Z,5.00
2022-10-24T00:18:32.284Z,5.28
2022-10-24T00:19:33.136Z,5.47
2022-10-24T00:20:36.408Z,5.87
2022-10-24T00:21:38.718Z,5.55
2022-10-24T00:22:39.836Z,5.85
2022-10-24T00:23:40.695Z,5.13
2022-10-24T00:24:41.822Z,5.90
2022-10-24T00:25:42.705Z,5.97
2022-10-24T00:26:43.870Z,5.20
2022-10-24T00:27:44.735Z,5.80
2022-10-24T00:28:45.872Z,4.67
2022-10-24T00:29:46.719Z,4.93
2022-10-24T00:30:50.405Z,5.23
2022-10-24T00:31:51.261Z,4.60
2022-10-24T00:32:53.022Z,4.87
2022-10-24T00:33:55.935Z,4.82
2022-10-24T00:34:57.258Z,4.57
2022-10-24T00:35:58.523Z,4.95
2022-10-24T00:36:59.629Z,4.90
2022-10-24T00:38:00.478Z,4.88
2022-10-24T00:39:01.935Z,4.33
2022-10-24T00:40:04.578Z,4.13
2022-10-24T00:41:05.818Z,4.88
2022-10-24T00:42:06.655Z,4.68
2022-10-24T00:43:13.142Z,4.73
2022-10-24T00:44:19.425Z,4.47
2022-10-24T00:45:41.710Z,3.97
2022-10-24T00:46:44.824Z,4.65
2022-10-24T00:47:46.200Z,4.63
2022-10-24T00:48:49.668Z,4.97
2022-10-24T00:49:52.022Z,4.30
2022-10-24T00:50:55.014Z,4.60
2022-10-24T00:51:58.561Z,4.22
2022-10-24T00:52:59.393Z,4.53
2022-10-24T00:54:02.599Z,4.67
2022-10-24T00:55:04.494Z,4.90
2022-10-24T00:56:07.388Z,4.88
2022-10-24T00:57:09.558Z,4.85
2022-10-24T00:58:11.024Z,4.53
2022-10-24T00:59:12.186Z,5.05
2022-10-24T01:00:14.907Z,5.03
2022-10-24T01:01:15.921Z,4.03
2022-10-24T01:02:17.185Z,5.13
2022-10-24T01:03:18.147Z,4.93
2022-10-24T01:04:19.939Z,5.73
2022-10-24T01:05:22.182Z,4.90
2022-10-24T01:06:28.865Z,5.70
2022-10-24T01:07:52.634Z,4.82
2022-10-24T01:08:58.226Z,5.05
2022-10-24T01:10:16.831Z,5.80
2022-10-24T01:11:25.927Z,5.00
2022-10-24T01:12:32.224Z,5.63
2022-10-24T01:13:38.281Z,5.40
2022-10-24T01:14:45.357Z,5.80
2022-10-24T01:15:48.524Z,6.05
2022-10-24T01:16:51.141Z,5.30
2022-10-24T01:17:56.387Z,4.93
2022-10-24T01:19:00.709Z,5.78
2022-10-24T01:20:31.978Z,5.97
2022-10-24T01:21:34.790Z,4.88
2022-10-24T01:22:41.370Z,4.75
2022-10-24T01:23:52.433Z,5.47
2022-10-24T01:25:03.164Z,5.95
2022-10-24T01:26:13.798Z,5.80
2022-10-24T01:27:27.187Z,6.03
2022-10-24T01:28:30.285Z,5.35
2022-10-24T01:29:40.190Z,5.50
2022-10-24T01:30:42.918Z,5.72
2022-10-24T01:31:47.415Z,5.65
2022-10-24T01:32:55.590Z,5.45
2022-10-24T01:33:58.962Z,6.10
2022-10-24T01:35:01.672Z,5.45
2022-10-24T01:36:04.533Z,5.70
2022-10-24T01:37:07.273Z,5.22
2022-10-24T01:38:12.674Z,6.65
2022-10-24T01:39:16.537Z,6.03
2022-10-24T01:40:20.240Z,5.43
2022-10-24T01:41:23.190Z,6.10
2022-10-24T01:42:25.817Z,5.72
2022-10-24T01:43:27.995Z,5.78
2022-10-24T01:44:30.829Z,5.85
2022-10-24T01:45:34.317Z,5.80
2022-10-24T01:46:37.233Z,5.47
2022-10-24T01:47:39.935Z,5.43
2022-10-24T01:48:43.855Z,6.00
2022-10-24T01:49:47.887Z,6.20
2022-10-24T01:50:50.493Z,5.85
2022-10-24T01:51:53.261Z,6.10
2022-10-24T01:52:55.049Z,6.20
2022-10-24T01:53:56.475Z,6.07
2022-10-24T01:54:57.367Z,6.50
2022-10-24T01:55:58.998Z,6.17
2022-10-24T01:57:01.077Z,6.25
2022-10-24T01:58:02.201Z,5.53
2022-10-24T01:59:06.682Z,6.65
2022-10-24T02:00:09.227Z,6.70
2022-10-24T02:01:13.637Z,6.30
2022-10-24T02:02:17.206Z,6.10
2022-10-24T02:03:21.804Z,6.45
2022-10-24T02:04:22.996Z,6.38
2022-10-24T02:05:25.493Z,5.15
2022-10-24T02:06:29.275Z,6.60
2022-10-24T02:07:31.812Z,6.20
2022-10-24T02:08:35.397Z,5.57
2022-10-24T02:09:38.146Z,6.25
2022-10-24T02:10:41.631Z,6.05
2022-10-24T02:11:44.204Z,6.10
2022-10-24T02:12:47.548Z,6.70
2022-10-24T02:13:51.943Z,6.68
2022-10-24T02:14:55.158Z,6.32
2022-10-24T02:15:57.837Z,7.30
2022-10-24T02:17:00.000Z,5.50
2022-10-24T02:18:01.711Z,5.90
2022-10-24T02:19:02.595Z,6.95
2022-10-24T02:20:04.379Z,6.28
2022-10-24T02:21:15.196Z,5.95
2022-10-24T02:22:21.039Z,6.05
2022-10-24T02:23:25.966Z,5.53
2022-10-24T02:24:28.033Z,6.53
2022-10-24T02:25:32.579Z,6.25
2022-10-24T02:26:36.188Z,6.53
2022-10-24T02:27:38.755Z,6.18
2022-10-24T02:28:41.715Z,7.07
2022-10-24T02:29:45.314Z,6.88
2022-10-24T02:30:47.603Z,6.50
2022-10-24T02:31:53.679Z,6.68
2022-10-24T02:32:57.181Z,6.65
2022-10-24T02:33:59.748Z,6.60
2022-10-24T02:35:01.043Z,7.40
2022-10-24T02:36:02.702Z,6.70
2022-10-24T02:37:05.350Z,6.72
2022-10-24T02:38:09.905Z,6.55
2022-10-24T02:39:11.291Z,6.93
2022-10-24T02:40:14.464Z,6.57
2022-10-24T02:41:18.793Z,7.18
2022-10-24T02:42:20.640Z,6.90
2022-10-24T02:44:23.994Z,7.20
2022-10-24T02:45:25.309Z,8.02
2022-10-24T02:46:26.843Z,7.45
2022-10-24T02:47:28.502Z,6.72
2022-10-24T02:48:33.920Z,7.45
2022-10-24T02:49:35.093Z,7.25
2022-10-24T02:50:37.552Z,6.57
2022-10-24T02:51:40.798Z,7.60
2022-10-24T02:52:42.897Z,7.22
2022-10-24T02:53:44.239Z,7.10
2022-10-24T02:54:45.114Z,6.30
2022-10-24T02:55:46.415Z,7.00
2022-10-24T02:56:50.088Z,8.05
2022-10-24T02:57:51.214Z,7.60
2022-10-24T02:58:52.065Z,6.35
2022-10-24T02:59:53.321Z,8.15
2022-10-24T03:00:54.237Z,6.40
2022-10-24T03:01:55.456Z,7.00
2022-10-24T03:02:56.389Z,6.95
2022-10-24T03:03:58.172Z,6.90
2022-10-24T03:04:59.321Z,7.07
2022-10-24T03:06:00.449Z,7.53
2022-10-24T03:07:01.280Z,7.20
2022-10-24T03:08:02.526Z,7.53
2022-10-24T03:09:03.358Z,8.13
2022-10-24T03:10:04.810Z,7.60
2022-10-24T03:11:05.766Z,7.75
2022-10-24T03:12:07.027Z,7.87
2022-10-24T03:13:07.872Z,6.78
2022-10-24T03:14:09.016Z,7.83
2022-10-24T03:15:10.488Z,8.18
2022-10-24T03:16:14.015Z,8.00
2022-10-24T03:17:15.230Z,7.68
2022-10-24T03:18:16.369Z,7.77
2022-10-24T03:19:17.968Z,8.30
2022-10-24T03:20:19.120Z,7.85
2022-10-24T03:21:19.975Z,8.48
2022-10-24T03:22:21.103Z,7.88
2022-10-24T03:23:22.000Z,8.88
2022-10-24T03:24:31.355Z,7.78
2022-10-24T03:25:44.249Z,9.13
2022-10-24T03:26:45.409Z,8.63
2022-10-24T03:27:46.475Z,8.82
2022-10-24T03:28:47.837Z,7.85
2022-10-24T03:29:48.676Z,8.13
2022-10-24T03:30:49.889Z,7.77
2022-10-24T03:31:50.753Z,8.50
2022-10-24T03:32:51.870Z,7.95
2022-10-24T03:33:52.701Z,7.70
2022-10-24T03:34:54.604Z,7.85
2022-10-24T03:35:55.591Z,7.82
2022-10-24T03:36:56.695Z,7.80
2022-10-24T03:37:57.586Z,7.57
2022-10-24T03:38:58.716Z,8.00
2022-10-24T03:39:59.529Z,8.38
2022-10-24T03:41:00.650Z,8.23
2022-10-24T03:42:01.565Z,8.70
2022-10-24T03:43:02.723Z,8.43
2022-10-24T03:44:03.662Z,8.38
2022-10-24T03:45:05.390Z,8.50
2022-10-24T03:46:06.254Z,7.78
2022-10-24T03:47:07.374Z,8.23
2022-10-24T03:48:08.242Z,8.30
2022-10-24T03:49:09.536Z,9.10
2022-10-24T03:50:11.074Z,7.78
2022-10-24T03:52:13.412Z,7.97
2022-10-24T03:53:14.593Z,7.97
2022-10-24T03:54:15.484Z,6.97
2022-10-24T03:55:16.711Z,7.93
2022-10-24T03:56:17.599Z,8.32
2022-10-24T03:57:18.823Z,7.15
2022-10-24T03:58:19.687Z,8.18
2022-10-24T03:59:20.838Z,8.40
2022-10-24T04:00:21.919Z,8.43
2022-10-24T04:01:23.757Z,8.30
2022-10-24T04:02:24.678Z,9.02
2022-10-24T04:03:26.354Z,8.33
2022-10-24T04:04:27.211Z,8.10
2022-10-24T04:05:29.032Z,9.27
2022-10-24T04:06:31.408Z,8.35
2022-10-24T04:07:35.268Z,7.93
2022-10-24T04:08:36.174Z,7.68
2022-10-24T04:09:37.344Z,8.95
2022-10-24T04:10:38.187Z,8.00
2022-10-24T04:11:39.354Z,9.73
2022-10-24T04:12:40.195Z,8.82
2022-10-24T04:13:41.307Z,9.52
2022-10-24T04:14:42.235Z,9.57
2022-10-24T04:15:43.353Z,7.63
2022-10-24T04:16:44.242Z,7.82
2022-10-24T04:17:45.644Z,9.57
2022-10-24T04:18:46.668Z,9.65
2022-10-24T04:19:47.795Z,10.40
2022-10-24T04:20:49.290Z,10.10
2022-10-24T04:21:50.511Z,9.27
2022-10-24T04:22:51.342Z,9.23
2022-10-24T04:23:52.466Z,8.98
2022-10-24T04:24:53.304Z,8.57
2022-10-24T04:25:54.458Z,8.73
2022-10-24T04:26:55.378Z,7.68
2022-10-24T04:27:56.487Z,8.57
2022-10-24T04:28:57.363Z,8.85
2022-10-24T04:29:58.531Z,9.43
2022-10-24T04:30:59.371Z,9.90
2022-10-24T04:32:00.878Z,9.23
2022-10-24T04:33:01.714Z,9.88
2022-10-24T04:34:04.494Z,8.60
2022-10-24T04:35:06.192Z,8.35
2022-10-24T04:36:08.297Z,9.07
2022-10-24T04:37:09.178Z,8.23
2022-10-24T04:38:10.301Z,9.27
2022-10-24T04:39:11.138Z,9.68
2022-10-24T04:40:12.303Z,9.07
2022-10-24T04:41:13.135Z,8.45
2022-10-24T04:42:14.288Z,8.85
2022-10-24T04:43:15.173Z,8.68
2022-10-24T04:44:16.305Z,10.20
2022-10-24T04:45:17.173Z,8.73
2022-10-24T04:46:18.302Z,8.00
2022-10-24T04:48:21.215Z,8.00
2022-10-24T04:49:22.084Z,8.25
2022-10-24T04:50:23.210Z,8.50
2022-10-24T04:51:24.720Z,8.88
2022-10-24T04:52:26.017Z,8.27
2022-10-24T04:53:26.874Z,8.30
2022-10-24T04:54:27.965Z,7.73
2022-10-24T04:55:28.868Z,9.02
2022-10-24T04:56:30.032Z,8.85
2022-10-24T04:57:30.951Z,9.27
2022-10-24T04:58:32.085Z,7.57
2022-10-24T04:59:32.940Z,9.20
2022-10-24T05:00:34.055Z,9.07
2022-10-24T05:01:34.945Z,8.80
2022-10-24T05:02:36.158Z,9.10
2022-10-24T05:03:36.998Z,10.07
2022-10-24T05:04:38.151Z,8.40
2022-10-24T05:05:39.003Z,7.78
2022-10-24T05:06:42.791Z,8.70
2022-10-24T05:07:46.761Z,7.88
2022-10-24T05:09:48.782Z,8.27
2022-10-24T05:10:49.745Z,8.93
2022-10-24T05:11:50.865Z,9.70
2022-10-24T05:12:51.830Z,9.00
2022-10-24T05:13:52.972Z,9.60
2022-10-24T05:14:53.804Z,9.07
2022-10-24T05:15:54.940Z,8.57
2022-10-24T05:16:55.898Z,9.27
2022-10-24T05:17:57.140Z,8.87
2022-10-24T05:18:58.026Z,8.80
2022-10-24T05:19:59.146Z,8.47
2022-10-24T05:21:00.233Z,10.02
2022-10-24T05:22:03.276Z,7.80
2022-10-24T05:23:06.166Z,9.68
2022-10-24T05:24:07.140Z,9.07
2022-10-24T05:25:08.476Z,9.40
2022-10-24T05:26:09.315Z,8.77
2022-10-24T05:27:10.561Z,8.70
2022-10-24T05:28:11.740Z,8.77
2022-10-24T05:29:12.593Z,9.70
2022-10-24T05:30:13.785Z,9.50
2022-10-24T05:31:14.601Z,9.75
2022-10-24T05:32:15.721Z,9.33
2022-10-24T05:33:16.602Z,8.80
2022-10-24T05:34:18.230Z,9.10
2022-10-24T05:35:19.132Z,9.70
2022-10-24T05:36:20.266Z,8.73
2022-10-24T05:37:21.820Z,8.95
2022-10-24T05:38:23.030Z,9.40
2022-10-24T05:39:23.870Z,10.48
2022-10-24T05:40:25.076Z,8.47
2022-10-24T05:41:25.933Z,9.48
2022-10-24T05:42:27.053Z,9.00
2022-10-24T05:43:27.936Z,9.88
2022-10-24T05:44:29.228Z,9.57
2022-10-24T05:45:30.372Z,9.68
2022-10-24T05:46:31.384Z,9.73
2022-10-24T05:47:32.511Z,9.77
2022-10-24T05:48:33.403Z,9.40
2022-10-24T05:49:34.533Z,7.27
2022-10-24T05:50:35.451Z,9.23
2022-10-24T05:51:36.614Z,7.43
2022-10-24T05:52:43.272Z,10.50
2022-10-24T05:53:47.791Z,10.43
2022-10-24T05:55:02.796Z,9.77
2022-10-24T05:56:07.942Z,9.68
2022-10-24T05:57:08.774Z,10.43
2022-10-24T05:58:09.868Z,9.93
2022-10-24T05:59:10.772Z,10.90
2022-10-24T06:00:13.165Z,9.70
2022-10-24T06:01:14.045Z,10.10
2022-10-24T06:02:16.976Z,10.10
2022-10-24T06:03:17.871Z,10.43
2022-10-24T06:04:19.079Z,11.00
2022-10-24T06:05:20.111Z,9.45
2022-10-24T06:06:21.469Z,10.07
2022-10-24T06:07:22.438Z,10.05
2022-10-24T06:08:24.236Z,11.27
2022-10-24T06:09:25.146Z,10.63
2022-10-24T06:10:26.267Z,10.57
2022-10-24T06:11:27.079Z,10.80
2022-10-24T06:12:28.279Z,10.23
2022-10-24T06:13:33.787Z,11.00
2022-10-24T06:14:38.163Z,11.25
2022-10-24T06:16:39.909Z,10.45
2022-10-24T06:17:40.734Z,10.90
2022-10-24T06:18:42.098Z,11.10
2022-10-24T06:19:43.266Z,11.25
2022-10-24T06:20:44.448Z,11.38
2022-10-24T06:21:45.290Z,11.63
2022-10-24T06:22:48.001Z,11.13
2022-10-24T06:23:49.636Z,10.70
2022-10-24T06:24:51.075Z,10.45
2022-10-24T06:25:52.184Z,11.40
2022-10-24T06:26:53.112Z,10.68
2022-10-24T06:27:54.286Z,11.37
2022-10-24T06:28:55.133Z,11.57
2022-10-24T06:29:56.382Z,12.50
2022-10-24T06:30:57.227Z,11.02
2022-10-24T06:31:58.445Z,11.57
2022-10-24T06:32:59.294Z,12.05
2022-10-24T06:34:00.505Z,11.45
2022-10-24T06:35:01.457Z,11.75
2022-10-24T06:36:04.108Z,12.43
2022-10-24T06:37:04.997Z,12.63
2022-10-24T06:38:06.367Z,12.00
2022-10-24T06:39:08.004Z,12.90
2022-10-24T06:40:09.466Z,12.40
2022-10-24T06:41:12.496Z,12.63
2022-10-24T06:42:13.628Z,12.30
2022-10-24T06:43:15.654Z,12.73
2022-10-24T06:44:16.827Z,13.30
2022-10-24T06:45:20.078Z,13.07
2022-10-24T06:46:22.731Z,14.25
2022-10-24T06:47:23.622Z,14.07
2022-10-24T06:48:24.829Z,14.20
2022-10-24T06:49:25.694Z,10.48
2022-10-24T06:50:26.980Z,12.10
2022-10-24T06:51:27.832Z,13.57
2022-10-24T06:52:28.976Z,11.63
2022-10-24T06:53:31.731Z,14.48
2022-10-24T06:54:34.678Z,13.80
2022-10-24T06:55:37.615Z,13.88
2022-10-24T06:56:38.745Z,13.15
2022-10-24T06:57:39.623Z,13.02
2022-10-24T06:58:40.954Z,15.70
2022-10-24T06:59:42.125Z,13.90
2022-10-24T07:00:43.018Z,13.50
2022-10-24T07:01:44.845Z,14.97
2022-10-24T07:02:46.410Z,14.60
2022-10-24T07:03:47.730Z,15.10
2022-10-24T07:04:48.870Z,12.93
2022-10-24T07:05:49.867Z,15.07
2022-10-24T07:06:50.996Z,13.23
2022-10-24T07:07:52.115Z,13.48
2022-10-24T07:08:54.111Z,14.80
2022-10-24T07:09:57.110Z,12.13
2022-10-24T07:10:58.157Z,13.38
2022-10-24T07:11:59.259Z,11.98
2022-10-24T07:13:00.097Z,12.55
2022-10-24T07:14:03.457Z,13.17
2022-10-24T07:15:06.538Z,12.07
2022-10-24T07:17:08.370Z,14.27
2022-10-24T07:18:13.020Z,13.68
2022-10-24T07:19:14.224Z,13.80
2022-10-24T07:20:15.068Z,11.52
2022-10-24T07:21:18.085Z,13.07
2022-10-24T07:22:18.973Z,13.98
2022-10-24T07:23:20.099Z,13.03
2022-10-24T07:24:21.938Z,15.32
2022-10-24T07:25:23.465Z,14.43
2022-10-24T07:26:25.250Z,13.88
2022-10-24T07:27:26.121Z,15.07
2022-10-24T07:28:27.248Z,14.97
2022-10-24T07:29:28.458Z,14.52
2022-10-24T07:30:29.576Z,14.63
2022-10-24T07:31:31.827Z,15.15
2022-10-24T07:32:32.982Z,14.80
2022-10-24T07:33:34.157Z,14.30
2022-10-24T07:34:35.045Z,14.05
2022-10-24T07:35:40.465Z,14.65
2022-10-24T07:36:43.772Z,15.55
2022-10-24T07:37:45.479Z,15.73
2022-10-24T07:38:46.461Z,16.15
2022-10-24T07:39:47.666Z,15.00
2022-10-24T07:40:49.493Z,14.48
2022-10-24T07:41:50.674Z,12.95
2022-10-24T07:42:51.545Z,14.43
2022-10-24T07:43:54.198Z,13.52
2022-10-24T07:44:55.337Z,13.98
2022-10-24T07:45:56.516Z,14.70
2022-10-24T07:46:57.437Z,14.13
2022-10-24T07:47:59.323Z,13.53
2022-10-24T07:49:00.455Z,13.52
2022-10-24T07:50:01.459Z,13.15
2022-10-24T07:51:05.187Z,12.50
2022-10-24T07:52:06.348Z,12.75
2022-10-24T07:53:07.185Z,12.88
2022-10-24T07:54:08.772Z,13.77
2022-10-24T07:55:09.635Z,13.55
2022-10-24T07:56:13.752Z,13.23
2022-10-24T07:57:14.626Z,13.50
2022-10-24T07:58:15.766Z,12.33
2022-10-24T07:59:37.204Z,12.95
2022-10-24T08:00:42.527Z,12.45
2022-10-24T08:01:46.181Z,11.93
2022-10-24T08:02:50.491Z,13.02
2022-10-24T08:03:51.669Z,12.82
2022-10-24T08:04:52.506Z,11.88
2022-10-24T08:05:56.337Z,11.67
2022-10-24T08:06:57.171Z,12.02
2022-10-24T08:08:12.075Z,13.30
2022-10-24T08:09:21.025Z,11.85
2022-10-24T08:10:22.033Z,11.90
2022-10-24T08:11:25.119Z,11.50
2022-10-24T08:12:25.962Z,11.55
2022-10-24T08:13:27.202Z,12.17
2022-10-24T08:14:28.413Z,11.63
2022-10-24T08:15:29.509Z,12.52
2022-10-24T08:16:30.735Z,12.63
2022-10-24T08:17:31.875Z,11.13
2022-10-24T08:18:37.242Z,11.40
2022-10-24T08:19:43.591Z,10.88
2022-10-24T08:20:45.427Z,11.77
2022-10-24T08:21:46.298Z,11.38
2022-10-24T08:22:47.610Z,12.47
2022-10-24T08:23:50.173Z,12.65
2022-10-24T08:24:51.294Z,11.93
2022-10-24T08:25:52.186Z,11.93
2022-10-24T08:26:55.897Z,11.87
2022-10-24T08:27:57.052Z,11.45
2022-10-24T08:28:58.241Z,11.90
2022-10-24T08:29:59.347Z,12.48
2022-10-24T08:31:01.808Z,11.02
2022-10-24T08:32:03.117Z,10.82
2022-10-24T08:33:03.952Z,11.52
2022-10-24T08:34:05.511Z,11.83
2022-10-24T08:35:06.973Z,12.27
2022-10-24T08:36:13.296Z,11.80
2022-10-24T08:37:14.419Z,10.45
2022-10-24T08:38:15.252Z,13.48
2022-10-24T08:39:16.889Z,12.37
2022-10-24T08:40:18.578Z,10.82
2022-10-24T08:41:24.934Z,11.43
2022-10-24T08:42:26.967Z,11.30
2022-10-24T08:43:27.831Z,10.93
2022-10-24T08:44:30.376Z,11.60
2022-10-24T08:45:35.447Z,11.18
2022-10-24T08:46:39.546Z,12.05
2022-10-24T08:47:44.005Z,11.80
2022-10-24T08:48:49.499Z,11.88
2022-10-24T08:49:52.485Z,11.18
2022-10-24T08:50:55.751Z,11.18
2022-10-24T08:51:58.849Z,10.50
2022-10-24T08:53:01.859Z,11.15
2022-10-24T08:54:03.585Z,11.25
2022-10-24T08:55:09.169Z,11.38
2022-10-24T08:56:11.024Z,10.68
2022-10-24T08:57:18.538Z,10.18
2022-10-24T08:58:23.118Z,10.45
2022-10-24T08:59:24.474Z,10.07
2022-10-24T09:00:27.447Z,9.07
2022-10-24T09:01:30.965Z,9.27
2022-10-24T09:02:35.009Z,10.13
2022-10-24T09:03:57.055Z,9.95
2022-10-24T09:04:59.888Z,10.02
2022-10-24T09:06:03.486Z,10.05
2022-10-24T09:07:05.028Z,9.00
2022-10-24T09:08:12.842Z,7.88
2022-10-24T09:09:18.865Z,7.93
2022-10-24T09:10:22.381Z,7.13
2022-10-24T09:11:25.877Z,7.25
2022-10-24T09:12:26.989Z,7.22
2022-10-24T09:13:29.280Z,6.63
2022-10-24T09:14:31.078Z,6.93
2022-10-24T09:15:31.915Z,8.07
2022-10-24T09:16:33.219Z,7.73
2022-10-24T09:17:34.901Z,7.82
2022-10-24T09:18:38.097Z,7.70
2022-10-24T09:19:39.237Z,7.35
2022-10-24T09:20:40.055Z,7.35
2022-10-24T09:21:41.990Z,7.77
2022-10-24T09:23:45.628Z,7.57
2022-10-24T09:24:48.038Z,7.55
2022-10-24T09:25:50.479Z,7.72
2022-10-24T09:26:51.931Z,6.65
2022-10-24T09:27:53.073Z,7.50
2022-10-24T09:28:56.316Z,7.97
2022-10-24T09:29:58.279Z,8.50
2022-10-24T09:31:02.715Z,7.80
2022-10-24T09:32:03.651Z,8.25
2022-10-24T09:33:12.209Z,8.13
2022-10-24T09:34:13.029Z,7.93
2022-10-24T09:35:16.426Z,9.23
2022-10-24T09:36:18.492Z,8.43
2022-10-24T09:37:33.092Z,9.25
2022-10-24T09:38:39.903Z,8.68
2022-10-24T09:39:40.777Z,8.55
2022-10-24T09:40:47.048Z,9.40
2022-10-24T09:41:48.157Z,9.82
2022-10-24T09:42:51.883Z,10.73
2022-10-24T09:43:55.395Z,9.70
2022-10-24T09:44:57.015Z,9.68
2022-10-24T09:46:00.810Z,11.90
2022-10-24T09:47:03.079Z,10.80
2022-10-24T09:48:06.107Z,11.02
2022-10-24T09:49:16.818Z,11.23
2022-10-24T09:50:19.096Z,11.32
2022-10-24T09:51:22.618Z,9.35
2022-10-24T09:52:25.208Z,9.23
2022-10-24T09:53:27.318Z,10.13
2022-10-24T09:54:29.373Z,8.88
2022-10-24T09:55:30.566Z,9.00
2022-10-24T09:56:39.270Z,9.18
2022-10-24T09:57:40.422Z,9.98
2022-10-24T09:58:42.126Z,9.82
2022-10-24T09:59:43.626Z,8.57
2022-10-24T10:00:55.872Z,9.77
2022-10-24T10:02:07.867Z,8.13
2022-10-24T10:03:23.539Z,9.20
2022-10-24T10:04:25.165Z,8.13
2022-10-24T10:05:26.659Z,7.63
2022-10-24T10:06:27.569Z,7.00
2022-10-24T10:07:30.834Z,7.77
2022-10-24T10:08:33.015Z,6.35
2022-10-24T10:09:36.938Z,7.18
2022-10-24T10:10:38.089Z,6.95
2022-10-24T10:11:40.832Z,7.43
2022-10-24T10:12:54.452Z,8.02
2022-10-24T10:13:55.995Z,8.02
2022-10-24T10:14:56.877Z,8.63
2022-10-24T10:15:59.431Z,8.67
2022-10-24T10:17:01.556Z,8.82
2022-10-24T10:18:04.834Z,8.45
2022-10-24T10:19:12.759Z,8.38
2022-10-24T10:20:22.393Z,9.95
2022-10-24T10:21:24.406Z,9.80
2022-10-24T10:22:26.492Z,9.52
2022-10-24T10:23:30.905Z,7.88
2022-10-24T10:24:37.038Z,10.15
2022-10-24T10:25:37.948Z,10.65
2022-10-24T10:26:42.800Z,11.67
2022-10-24T10:27:49.463Z,7.85
2022-10-24T10:29:01.183Z,9.57
2022-10-24T10:30:14.214Z,8.98
2022-10-24T10:31:16.851Z,8.07
2022-10-24T10:32:22.526Z,9.48
2022-10-24T10:33:26.658Z,10.27
2022-10-24T10:34:30.629Z,10.07
2022-10-24T10:35:37.331Z,10.82
2022-10-24T10:36:42.962Z,10.73
2022-10-24T10:37:48.140Z,10.50
2022-10-24T10:38:50.916Z,9.70
2022-10-24T10:40:01.015Z,9.95
2022-10-24T10:41:04.373Z,8.93
2022-10-24T10:42:08.524Z,9.38
2022-10-24T10:43:23.316Z,8.90
2022-10-24T10:44:31.403Z,10.23
2022-10-24T10:45:35.284Z,9.65
2022-10-24T10:46:42.875Z,8.43
2022-10-24T10:47:47.875Z,8.40
2022-10-24T10:48:55.380Z,9.63
2022-10-24T10:49:57.941Z,10.45
2022-10-24T10:51:05.782Z,9.25
2022-10-24T10:52:12.179Z,9.80
2022-10-24T10:53:20.868Z,9.05
2022-10-24T10:54:28.038Z,10.10
2022-10-24T10:55:31.695Z,9.60
2022-10-24T10:56:37.666Z,8.82
2022-10-24T10:57:42.651Z,9.10
2022-10-24T10:58:47.228Z,8.48
2022-10-24T10:59:52.984Z,8.43
2022-10-24T11:00:58.247Z,9.30
2022-10-24T11:02:02.773Z,9.05
2022-10-24T11:03:16.606Z,9.80
2022-10-24T11:04:22.373Z,8.73
2022-10-24T11:05:27.193Z,7.88
2022-10-24T11:06:34.153Z,9.32
2022-10-24T11:07:40.028Z,8.85
2022-10-24T11:08:47.096Z,8.48
2022-10-24T11:09:49.118Z,8.13
2022-10-24T11:11:53.648Z,7.95
2022-10-24T11:12:55.623Z,7.28
2022-10-24T11:15:00.205Z,7.80
2022-10-24T11:16:04.646Z,8.05
2022-10-24T11:17:11.436Z,7.00
2022-10-24T11:18:14.014Z,6.68
2022-10-24T11:19:22.737Z,7.53
2022-10-24T11:20:25.888Z,7.50
2022-10-24T11:21:29.732Z,6.97
2022-10-24T11:22:34.544Z,6.57
2022-10-24T11:23:38.862Z,7.18
2022-10-24T11:24:43.057Z,7.43
2022-10-24T11:25:46.214Z,7.30
2022-10-24T11:26:51.757Z,6.88
2022-10-24T11:27:57.296Z,7.05
2022-10-24T11:29:01.085Z,7.45
2022-10-24T11:30:04.092Z,8.02
2022-10-24T11:31:07.511Z,8.50
2022-10-24T11:32:15.776Z,7.38
2022-10-24T11:33:20.413Z,8.27
2022-10-24T11:34:24.739Z,8.00
2022-10-24T11:35:28.254Z,7.68
2022-10-24T11:36:32.310Z,7.97
2022-10-24T11:37:35.704Z,7.30
2022-10-24T11:38:40.312Z,7.82
2022-10-24T11:39:44.378Z,7.35
2022-10-24T11:40:47.655Z,7.75
2022-10-24T11:41:59.620Z,7.35
2022-10-24T11:43:07.022Z,7.32
2022-10-24T11:44:14.828Z,6.93
2022-10-24T11:45:17.304Z,7.80
2022-10-24T11:46:20.008Z,7.70
2022-10-24T11:47:40.046Z,8.07
2022-10-24T11:48:42.791Z,7.63
2022-10-24T11:49:47.234Z,7.07
2022-10-24T11:50:51.174Z,7.07
2022-10-24T11:51:54.767Z,7.70
2022-10-24T11:52:58.485Z,7.03
2022-10-24T11:54:00.801Z,7.88
2022-10-24T11:55:05.374Z,7.75
2022-10-24T11:56:11.328Z,7.70
2022-10-24T11:57:16.039Z,7.40
2022-10-24T11:58:19.034Z,8.57
2022-10-24T11:59:23.511Z,7.97
2022-10-24T12:00:28.224Z,8.23
2022-10-24T12:01:53.040Z,8.35
2022-10-24T12:03:09.008Z,7.85
2022-10-24T12:04:31.223Z,8.05
2022-10-24T12:05:46.487Z,8.10
2022-10-24T12:06:57.163Z,7.45
2022-10-24T12:08:05.475Z,8.00
2022-10-24T12:09:12.626Z,8.00
2022-10-24T12:10:25.568Z,8.48
2022-10-24T12:11:36.722Z,9.30
2022-10-24T12:12:47.823Z,7.93
2022-10-24T12:13:54.640Z,7.90
2022-10-24T12:15:04.718Z,8.52
2022-10-24T12:16:11.642Z,9.60
2022-10-24T12:17:24.475Z,8.65
2022-10-24T12:18:29.123Z,8.85
2022-10-24T12:19:31.521Z,8.13
2022-10-24T12:20:33.202Z,9.00
2022-10-24T12:21:36.870Z,7.72
2022-10-24T12:22:40.457Z,8.18
2022-10-24T12:23:42.205Z,8.57
2022-10-24T12:24:43.335Z,8.52
2022-10-24T12:25:47.406Z,8.07
2022-10-24T12:26:59.270Z,7.97
2022-10-24T12:28:01.814Z,8.18
2022-10-24T12:29:04.187Z,7.75
2022-10-24T12:30:14.147Z,7.85
2022-10-24T12:31:22.364Z,8.82
2022-10-24T12:32:33.077Z,8.18
2022-10-24T12:33:34.284Z,7.80
2022-10-24T12:34:49.082Z,8.32
2022-10-24T12:35:52.132Z,7.18
2022-10-24T12:37:04.191Z,8.15
2022-10-24T12:38:14.739Z,7.50
2022-10-24T12:39:28.002Z,7.72
2022-10-24T12:40:47.798Z,7.68
2022-10-24T12:41:48.946Z,7.68
2022-10-24T12:43:11.657Z,7.97
2022-10-24T12:44:31.542Z,8.18
2022-10-24T12:45:33.115Z,8.18
2022-10-24T12:46:51.584Z,8.10
2022-10-24T12:48:09.996Z,8.18
2022-10-24T12:49:15.721Z,7.70
2022-10-24T12:50:35.579Z,8.25
2022-10-24T12:51:37.079Z,8.20
2022-10-24T12:52:58.738Z,9.05
2022-10-24T12:54:01.936Z,7.55
2022-10-24T12:55:02.942Z,9.10
2022-10-24T12:57:25.235Z,9.57
2022-10-24T12:58:28.401Z,8.48
2022-10-24T12:59:29.992Z,8.48
2022-10-24T13:00:31.111Z,8.57
2022-10-24T13:01:33.717Z,9.43
2022-10-24T13:02:50.738Z,9.35
2022-10-24T13:04:10.755Z,8.75
2022-10-24T13:05:17.275Z,8.13
2022-10-24T13:06:41.934Z,8.38
2022-10-24T13:07:53.969Z,8.57
2022-10-24T13:09:02.644Z,8.88
2022-10-24T13:10:14.206Z,8.77
2022-10-24T13:11:25.596Z,8.48
2022-10-24T13:12:39.975Z,9.57
2022-10-24T13:13:50.009Z,7.72
2022-10-24T13:15:00.725Z,8.65
2022-10-24T13:16:06.669Z,8.18
2022-10-24T13:17:10.250Z,8.60
2022-10-24T13:18:24.430Z,8.63
2022-10-24T13:19:26.161Z,7.80
2022-10-24T13:20:28.731Z,8.82
2022-10-24T13:21:30.810Z,8.38
2022-10-24T13:22:34.720Z,8.85
2022-10-24T13:23:36.021Z,8.57
2022-10-24T13:24:37.739Z,8.43
2022-10-24T13:25:39.859Z,8.63
2022-10-24T13:26:42.350Z,8.23
2022-10-24T13:27:43.172Z,9.45
2022-10-24T13:28:44.325Z,8.70
2022-10-24T13:30:02.583Z,8.50
2022-10-24T13:31:22.444Z,8.20
2022-10-24T13:32:23.754Z,9.13
2022-10-24T13:33:40.571Z,9.05
2022-10-24T13:34:43.644Z,8.48
2022-10-24T13:35:44.914Z,8.90
2022-10-24T13:36:47.364Z,8.73
2022-10-24T13:37:50.518Z,8.88
2022-10-24T13:38:52.658Z,7.90
2022-10-24T13:39:56.210Z,9.02
2022-10-24T13:40:57.874Z,9.20
2022-10-24T13:42:01.423Z,8.88
2022-10-24T13:43:07.504Z,8.85
2022-10-24T13:44:14.662Z,8.30
2022-10-24T13:45:21.234Z,9.23
2022-10-24T13:46:25.734Z,9.23
2022-10-24T13:47:29.296Z,10.93
2022-10-24T13:48:32.608Z,9.20
2022-10-24T13:49:36.657Z,9.25
2022-10-24T13:50:40.998Z,9.52
2022-10-24T13:51:44.109Z,10.15
2022-10-24T13:52:49.332Z,9.60
2022-10-24T13:53:52.465Z,10.07
2022-10-24T13:54:57.148Z,9.00
2022-10-24T13:56:00.610Z,11.45
2022-10-24T13:57:02.336Z,11.52
2022-10-24T13:59:04.452Z,10.98
2022-10-24T14:00:08.115Z,11.47
2022-10-24T14:01:14.278Z,10.48
2022-10-24T14:02:18.734Z,10.07
2022-10-24T14:03:22.202Z,11.32
2022-10-24T14:04:23.251Z,10.45
2022-10-24T14:05:34.920Z,10.00
2022-10-24T14:06:35.798Z,10.35
2022-10-24T14:07:37.801Z,9.80
2022-10-24T14:09:40.816Z,9.73
2022-10-24T14:10:41.963Z,10.55